sensor_id;sensor_type;location;lat;lon;timestamp;P1;durP1;ratioP1;P2;durP2;ratioP2
35257;SDS011;21385;50.878;8.050;2023-11-19T00:00:34;1.40;;;1.30;;
35257;SDS011;21385;50.878;8.050;2023-11-19T00:03:00;2.75;;;1.27;;
35257;SDS011;21385;50.878;8.050;2023-11-19T00:05:26;1.10;;;1.00;;
35257;SDS011;21385;50.878;8.050;2023-11-19T00:07:52;1.70;;;1.60;;
35257;SDS011;21385;50.878;8.050;2023-11-19T00:10:18;1.60;;;0.80;;
35257;SDS011;21385;50.878;8.050;2023-11-19T00:12:45;1.95;;;0.85;;
35257;SDS011;21385;50.878;8.050;2023-11-19T00:15:12;1.00;;;1.00;;
35257;SDS011;21385;50.878;8.050;2023-11-19T00:17:39;3.05;;;1.35;;
35257;SDS011;21385;50.878;8.050;2023-11-19T00:20:10;2.47;;;1.77;;
35257;SDS011;21385;50.878;8.050;2023-11-19T00:22:46;1.23;;;1.05;;
35257;SDS011;21385;50.878;8.050;2023-11-19T00:25:16;1.52;;;0.65;;
35257;SDS011;21385;50.878;8.050;2023-11-19T00:27:42;0.20;;;0.20;;
35257;SDS011;21385;50.878;8.050;2023-11-19T00:30:09;1.13;;;0.68;;
35257;SDS011;21385;50.878;8.050;2023-11-19T00:32:35;1.95;;;1.15;;
35257;SDS011;21385;50.878;8.050;2023-11-19T00:35:03;0.43;;;0.40;;
35257;SDS011;21385;50.878;8.050;2023-11-19T00:37:29;1.00;;;0.90;;
35257;SDS011;21385;50.878;8.050;2023-11-19T00:39:55;0.30;;;0.30;;
35257;SDS011;21385;50.878;8.050;2023-11-19T00:42:21;0.57;;;0.50;;
35257;SDS011;21385;50.878;8.050;2023-11-19T00:44:49;0.52;;;0.52;;
35257;SDS011;21385;50.878;8.050;2023-11-19T00:47:15;0.20;;;0.20;;
35257;SDS011;21385;50.878;8.050;2023-11-19T00:49:40;0.20;;;0.20;;
35257;SDS011;21385;50.878;8.050;2023-11-19T00:52:06;0.40;;;0.40;;
35257;SDS011;21385;50.878;8.050;2023-11-19T00:54:32;0.30;;;0.30;;
35257;SDS011;21385;50.878;8.050;2023-11-19T00:56:57;0.60;;;0.50;;
35257;SDS011;21385;50.878;8.050;2023-11-19T00:59:23;2.53;;;0.93;;
35257;SDS011;21385;50.878;8.050;2023-11-19T01:01:48;0.75;;;0.57;;
35257;SDS011;21385;50.878;8.050;2023-11-19T01:04:16;0.45;;;0.30;;
35257;SDS011;21385;50.878;8.050;2023-11-19T01:06:41;0.65;;;0.65;;
35257;SDS011;21385;50.878;8.050;2023-11-19T01:09:07;0.52;;;0.30;;
35257;SDS011;21385;50.878;8.050;2023-11-19T01:11:34;0.63;;;0.60;;
35257;SDS011;21385;50.878;8.050;2023-11-19T01:14:00;0.28;;;0.28;;
35257;SDS011;21385;50.878;8.050;2023-11-19T01:16:25;0.20;;;0.20;;
35257;SDS011;21385;50.878;8.050;2023-11-19T01:18:51;0.90;;;0.80;;
35257;SDS011;21385;50.878;8.050;2023-11-19T01:21:17;0.52;;;0.50;;
35257;SDS011;21385;50.878;8.050;2023-11-19T01:23:43;0.40;;;0.40;;
35257;SDS011;21385;50.878;8.050;2023-11-19T01:26:09;0.50;;;0.35;;
35257;SDS011;21385;50.878;8.050;2023-11-19T01:28:35;0.28;;;0.28;;
35257;SDS011;21385;50.878;8.050;2023-11-19T01:31:01;1.02;;;0.93;;
35257;SDS011;21385;50.878;8.050;2023-11-19T01:33:28;0.75;;;0.50;;
35257;SDS011;21385;50.878;8.050;2023-11-19T01:35:54;0.63;;;0.50;;
35257;SDS011;21385;50.878;8.050;2023-11-19T01:38:21;0.50;;;0.43;;
35257;SDS011;21385;50.878;8.050;2023-11-19T01:40:46;0.10;;;0.10;;
35257;SDS011;21385;50.878;8.050;2023-11-19T01:43:12;0.17;;;0.17;;
35257;SDS011;21385;50.878;8.050;2023-11-19T01:45:55;0.88;;;0.43;;
35257;SDS011;21385;50.878;8.050;2023-11-19T01:48:21;0.47;;;0.20;;
35257;SDS011;21385;50.878;8.050;2023-11-19T01:50:47;0.20;;;0.15;;
35257;SDS011;21385;50.878;8.050;2023-11-19T01:53:13;0.20;;;0.20;;
35257;SDS011;21385;50.878;8.050;2023-11-19T01:55:39;0.20;;;0.20;;
35257;SDS011;21385;50.878;8.050;2023-11-19T01:58:05;0.57;;;0.50;;
35257;SDS011;21385;50.878;8.050;2023-11-19T02:00:32;0.20;;;0.20;;
35257;SDS011;21385;50.878;8.050;2023-11-19T02:02:58;0.20;;;0.20;;
35257;SDS011;21385;50.878;8.050;2023-11-19T02:05:24;0.35;;;0.35;;
35257;SDS011;21385;50.878;8.050;2023-11-19T02:07:50;0.43;;;0.38;;
35257;SDS011;21385;50.878;8.050;2023-11-19T02:10:16;0.08;;;0.08;;
35257;SDS011;21385;50.878;8.050;2023-11-19T02:12:44;2.20;;;0.55;;
35257;SDS011;21385;50.878;8.050;2023-11-19T02:15:10;0.20;;;0.20;;
35257;SDS011;21385;50.878;8.050;2023-11-19T02:17:36;0.10;;;0.10;;
35257;SDS011;21385;50.878;8.050;2023-11-19T02:20:03;0.20;;;0.20;;
35257;SDS011;21385;50.878;8.050;2023-11-19T02:22:39;0.10;;;0.10;;
35257;SDS011;21385;50.878;8.050;2023-11-19T02:25:11;0.90;;;0.47;;
35257;SDS011;21385;50.878;8.050;2023-11-19T02:30:21;0.80;;;0.28;;
35257;SDS011;21385;50.878;8.050;2023-11-19T02:32:52;0.32;;;0.20;;
35257;SDS011;21385;50.878;8.050;2023-11-19T02:35:19;0.08;;;0.08;;
35257;SDS011;21385;50.878;8.050;2023-11-19T02:37:46;0.40;;;0.40;;
35257;SDS011;21385;50.878;8.050;2023-11-19T02:40:12;2.15;;;0.40;;
35257;SDS011;21385;50.878;8.050;2023-11-19T02:42:38;0.30;;;0.30;;
35257;SDS011;21385;50.878;8.050;2023-11-19T02:45:04;0.80;;;0.38;;
35257;SDS011;21385;50.878;8.050;2023-11-19T02:47:32;6.43;;;0.15;;
35257;SDS011;21385;50.878;8.050;2023-11-19T02:49:58;0.30;;;0.30;;
35257;SDS011;21385;50.878;8.050;2023-11-19T02:52:24;0.10;;;0.10;;
35257;SDS011;21385;50.878;8.050;2023-11-19T02:54:50;0.10;;;0.10;;
35257;SDS011;21385;50.878;8.050;2023-11-19T02:57:17;0.47;;;0.47;;
35257;SDS011;21385;50.878;8.050;2023-11-19T02:59:46;0.85;;;0.28;;
35257;SDS011;21385;50.878;8.050;2023-11-19T03:02:11;0.50;;;0.50;;
35257;SDS011;21385;50.878;8.050;2023-11-19T03:04:37;0.35;;;0.20;;
35257;SDS011;21385;50.878;8.050;2023-11-19T03:07:07;0.15;;;0.15;;
35257;SDS011;21385;50.878;8.050;2023-11-19T03:09:33;0.25;;;0.25;;
35257;SDS011;21385;50.878;8.050;2023-11-19T03:12:00;0.10;;;0.10;;
35257;SDS011;21385;50.878;8.050;2023-11-19T03:14:26;0.20;;;0.20;;
35257;SDS011;21385;50.878;8.050;2023-11-19T03:16:52;0.10;;;0.10;;
35257;SDS011;21385;50.878;8.050;2023-11-19T03:19:18;0.40;;;0.10;;
35257;SDS011;21385;50.878;8.050;2023-11-19T03:21:43;0.35;;;0.20;;
35257;SDS011;21385;50.878;8.050;2023-11-19T03:24:09;0.20;;;0.20;;
35257;SDS011;21385;50.878;8.050;2023-11-19T03:26:35;0.47;;;0.40;;
35257;SDS011;21385;50.878;8.050;2023-11-19T03:29:02;0.30;;;0.30;;
35257;SDS011;21385;50.878;8.050;2023-11-19T03:31:28;0.30;;;0.30;;
35257;SDS011;21385;50.878;8.050;2023-11-19T03:33:53;0.10;;;0.10;;
35257;SDS011;21385;50.878;8.050;2023-11-19T03:36:19;0.10;;;0.10;;
35257;SDS011;21385;50.878;8.050;2023-11-19T03:38:45;0.13;;;0.13;;
35257;SDS011;21385;50.878;8.050;2023-11-19T03:41:13;0.10;;;0.10;;
35257;SDS011;21385;50.878;8.050;2023-11-19T03:43:40;0.15;;;0.15;;
35257;SDS011;21385;50.878;8.050;2023-11-19T03:46:18;0.63;;;0.47;;
35257;SDS011;21385;50.878;8.050;2023-11-19T03:48:45;0.20;;;0.20;;
35257;SDS011;21385;50.878;8.050;2023-11-19T03:51:12;0.57;;;0.20;;
35257;SDS011;21385;50.878;8.050;2023-11-19T03:53:49;0.08;;;0.08;;
35257;SDS011;21385;50.878;8.050;2023-11-19T03:56:15;0.32;;;0.20;;
35257;SDS011;21385;50.878;8.050;2023-11-19T03:58:40;1.20;;;0.30;;
35257;SDS011;21385;50.878;8.050;2023-11-19T04:01:06;0.73;;;0.43;;
35257;SDS011;21385;50.878;8.050;2023-11-19T04:06:03;0.40;;;0.40;;
35257;SDS011;21385;50.878;8.050;2023-11-19T04:08:29;4.20;;;0.30;;
35257;SDS011;21385;50.878;8.050;2023-11-19T04:10:55;0.10;;;0.10;;
35257;SDS011;21385;50.878;8.050;2023-11-19T04:13:20;0.20;;;0.20;;
35257;SDS011;21385;50.878;8.050;2023-11-19T04:15:47;1.00;;;0.30;;
35257;SDS011;21385;50.878;8.050;2023-11-19T04:18:14;0.82;;;0.30;;
35257;SDS011;21385;50.878;8.050;2023-11-19T04:20:40;0.10;;;0.10;;
35257;SDS011;21385;50.878;8.050;2023-11-19T04:23:07;0.17;;;0.17;;
35257;SDS011;21385;50.878;8.050;2023-11-19T04:25:33;0.25;;;0.25;;
35257;SDS011;21385;50.878;8.050;2023-11-19T04:27:59;0.13;;;0.13;;
35257;SDS011;21385;50.878;8.050;2023-11-19T04:30:25;8.38;;;0.80;;
35257;SDS011;21385;50.878;8.050;2023-11-19T04:32:50;0.20;;;0.10;;
35257;SDS011;21385;50.878;8.050;2023-11-19T04:35:16;0.55;;;0.25;;
35257;SDS011;21385;50.878;8.050;2023-11-19T04:37:42;0.20;;;0.20;;
35257;SDS011;21385;50.878;8.050;2023-11-19T04:40:07;0.20;;;0.20;;
35257;SDS011;21385;50.878;8.050;2023-11-19T04:42:34;0.82;;;0.43;;
35257;SDS011;21385;50.878;8.050;2023-11-19T04:45:00;1.63;;;0.60;;
35257;SDS011;21385;50.878;8.050;2023-11-19T04:47:25;3.05;;;0.40;;
35257;SDS011;21385;50.878;8.050;2023-11-19T04:49:51;0.40;;;0.30;;
35257;SDS011;21385;50.878;8.050;2023-11-19T04:52:17;2.65;;;0.40;;
35257;SDS011;21385;50.878;8.050;2023-11-19T04:54:42;0.90;;;0.60;;
35257;SDS011;21385;50.878;8.050;2023-11-19T04:57:09;0.70;;;0.50;;
35257;SDS011;21385;50.878;8.050;2023-11-19T04:59:38;0.25;;;0.22;;
35257;SDS011;21385;50.878;8.050;2023-11-19T05:02:04;0.20;;;0.20;;
35257;SDS011;21385;50.878;8.050;2023-11-19T05:04:30;0.28;;;0.28;;
35257;SDS011;21385;50.878;8.050;2023-11-19T05:06:56;1.40;;;0.40;;
35257;SDS011;21385;50.878;8.050;2023-11-19T05:09:21;0.75;;;0.32;;
35257;SDS011;21385;50.878;8.050;2023-11-19T05:11:47;1.02;;;0.75;;
35257;SDS011;21385;50.878;8.050;2023-11-19T05:14:13;6.13;;;0.65;;
35257;SDS011;21385;50.878;8.050;2023-11-19T05:16:39;1.08;;;0.57;;
35257;SDS011;21385;50.878;8.050;2023-11-19T05:19:05;1.88;;;0.57;;
35257;SDS011;21385;50.878;8.050;2023-11-19T05:21:32;1.30;;;0.38;;
35257;SDS011;21385;50.878;8.050;2023-11-19T05:23:58;4.68;;;0.60;;
35257;SDS011;21385;50.878;8.050;2023-11-19T05:26:24;0.40;;;0.40;;
35257;SDS011;21385;50.878;8.050;2023-11-19T05:28:50;0.50;;;0.50;;
35257;SDS011;21385;50.878;8.050;2023-11-19T05:31:16;1.10;;;0.47;;
35257;SDS011;21385;50.878;8.050;2023-11-19T05:33:43;3.63;;;0.95;;
35257;SDS011;21385;50.878;8.050;2023-11-19T05:36:10;1.40;;;0.68;;
35257;SDS011;21385;50.878;8.050;2023-11-19T05:38:37;0.63;;;0.40;;
35257;SDS011;21385;50.878;8.050;2023-11-19T05:41:03;1.35;;;0.57;;
35257;SDS011;21385;50.878;8.050;2023-11-19T05:43:30;1.92;;;0.50;;
35257;SDS011;21385;50.878;8.050;2023-11-19T05:45:56;1.40;;;0.90;;
35257;SDS011;21385;50.878;8.050;2023-11-19T05:48:21;1.33;;;0.68;;
35257;SDS011;21385;50.878;8.050;2023-11-19T05:50:47;0.93;;;0.52;;
35257;SDS011;21385;50.878;8.050;2023-11-19T05:53:15;3.70;;;0.88;;
35257;SDS011;21385;50.878;8.050;2023-11-19T05:55:40;0.60;;;0.60;;
35257;SDS011;21385;50.878;8.050;2023-11-19T05:58:19;2.85;;;0.38;;
35257;SDS011;21385;50.878;8.050;2023-11-19T06:00:48;0.45;;;0.45;;
35257;SDS011;21385;50.878;8.050;2023-11-19T06:03:15;1.20;;;0.60;;
35257;SDS011;21385;50.878;8.050;2023-11-19T06:05:41;2.05;;;0.60;;
35257;SDS011;21385;50.878;8.050;2023-11-19T06:08:10;0.65;;;0.60;;
35257;SDS011;21385;50.878;8.050;2023-11-19T06:10:38;1.05;;;0.95;;
35257;SDS011;21385;50.878;8.050;2023-11-19T06:13:06;1.17;;;0.65;;
35257;SDS011;21385;50.878;8.050;2023-11-19T06:15:35;5.78;;;0.93;;
35257;SDS011;21385;50.878;8.050;2023-11-19T06:18:01;5.13;;;1.35;;
35257;SDS011;21385;50.878;8.050;2023-11-19T06:20:28;3.88;;;1.58;;
35257;SDS011;21385;50.878;8.050;2023-11-19T06:22:55;3.33;;;1.15;;
35257;SDS011;21385;50.878;8.050;2023-11-19T06:25:21;2.75;;;1.02;;
35257;SDS011;21385;50.878;8.050;2023-11-19T06:27:49;7.95;;;1.60;;
35257;SDS011;21385;50.878;8.050;2023-11-19T06:30:15;1.92;;;1.02;;
35257;SDS011;21385;50.878;8.050;2023-11-19T06:32:41;1.02;;;0.75;;
35257;SDS011;21385;50.878;8.050;2023-11-19T06:35:07;2.63;;;1.02;;
35257;SDS011;21385;50.878;8.050;2023-11-19T06:37:34;6.13;;;2.05;;
35257;SDS011;21385;50.878;8.050;2023-11-19T06:40:00;5.78;;;0.80;;
35257;SDS011;21385;50.878;8.050;2023-11-19T06:42:26;0.90;;;0.52;;
35257;SDS011;21385;50.878;8.050;2023-11-19T06:44:52;3.35;;;0.98;;
35257;SDS011;21385;50.878;8.050;2023-11-19T06:47:17;6.05;;;1.73;;
35257;SDS011;21385;50.878;8.050;2023-11-19T06:49:43;2.80;;;1.50;;
35257;SDS011;21385;50.878;8.050;2023-11-19T06:52:09;7.38;;;1.52;;
35257;SDS011;21385;50.878;8.050;2023-11-19T06:54:35;2.30;;;1.73;;
35257;SDS011;21385;50.878;8.050;2023-11-19T06:57:01;0.70;;;0.70;;
35257;SDS011;21385;50.878;8.050;2023-11-19T06:59:28;5.00;;;2.63;;
35257;SDS011;21385;50.878;8.050;2023-11-19T07:01:54;4.78;;;1.63;;
35257;SDS011;21385;50.878;8.050;2023-11-19T07:04:20;5.20;;;1.98;;
35257;SDS011;21385;50.878;8.050;2023-11-19T07:06:46;3.70;;;0.90;;
35257;SDS011;21385;50.878;8.050;2023-11-19T07:09:13;11.70;;;1.38;;
35257;SDS011;21385;50.878;8.050;2023-11-19T07:11:39;1.92;;;1.23;;
35257;SDS011;21385;50.878;8.050;2023-11-19T07:14:05;4.50;;;1.88;;
35257;SDS011;21385;50.878;8.050;2023-11-19T07:16:34;7.30;;;1.58;;
35257;SDS011;21385;50.878;8.050;2023-11-19T07:19:02;4.88;;;2.42;;
35257;SDS011;21385;50.878;8.050;2023-11-19T07:21:28;12.27;;;1.80;;
35257;SDS011;21385;50.878;8.050;2023-11-19T07:23:57;11.63;;;2.00;;
35257;SDS011;21385;50.878;8.050;2023-11-19T07:26:23;2.88;;;1.52;;
35257;SDS011;21385;50.878;8.050;2023-11-19T07:28:49;18.73;;;2.97;;
35257;SDS011;21385;50.878;8.050;2023-11-19T07:31:15;5.95;;;2.55;;
35257;SDS011;21385;50.878;8.050;2023-11-19T07:33:40;7.95;;;1.73;;
35257;SDS011;21385;50.878;8.050;2023-11-19T07:36:09;5.63;;;2.42;;
35257;SDS011;21385;50.878;8.050;2023-11-19T07:38:35;8.23;;;1.02;;
35257;SDS011;21385;50.878;8.050;2023-11-19T07:41:01;1.80;;;1.38;;
35257;SDS011;21385;50.878;8.050;2023-11-19T07:43:27;4.20;;;2.17;;
35257;SDS011;21385;50.878;8.050;2023-11-19T07:45:53;8.20;;;2.47;;
35257;SDS011;21385;50.878;8.050;2023-11-19T07:48:18;9.55;;;3.97;;
35257;SDS011;21385;50.878;8.050;2023-11-19T07:50:48;3.25;;;2.03;;
35257;SDS011;21385;50.878;8.050;2023-11-19T07:53:17;11.75;;;2.95;;
35257;SDS011;21385;50.878;8.050;2023-11-19T07:55:43;16.50;;;3.78;;
35257;SDS011;21385;50.878;8.050;2023-11-19T07:58:09;5.78;;;2.33;;
35257;SDS011;21385;50.878;8.050;2023-11-19T08:00:35;9.73;;;3.25;;
35257;SDS011;21385;50.878;8.050;2023-11-19T08:03:02;8.45;;;2.13;;
35257;SDS011;21385;50.878;8.050;2023-11-19T08:05:28;5.35;;;1.80;;
35257;SDS011;21385;50.878;8.050;2023-11-19T08:07:53;5.47;;;2.92;;
35257;SDS011;21385;50.878;8.050;2023-11-19T08:10:19;14.02;;;2.53;;
35257;SDS011;21385;50.878;8.050;2023-11-19T08:12:45;4.97;;;2.20;;
35257;SDS011;21385;50.878;8.050;2023-11-19T08:15:11;7.68;;;2.50;;
35257;SDS011;21385;50.878;8.050;2023-11-19T08:17:37;7.68;;;2.17;;
35257;SDS011;21385;50.878;8.050;2023-11-19T08:20:03;4.47;;;2.28;;
35257;SDS011;21385;50.878;8.050;2023-11-19T08:22:30;8.10;;;1.17;;
35257;SDS011;21385;50.878;8.050;2023-11-19T08:24:55;10.02;;;3.20;;
35257;SDS011;21385;50.878;8.050;2023-11-19T08:27:21;5.32;;;1.80;;
35257;SDS011;21385;50.878;8.050;2023-11-19T08:29:53;6.28;;;2.20;;
35257;SDS011;21385;50.878;8.050;2023-11-19T08:32:20;10.25;;;2.45;;
35257;SDS011;21385;50.878;8.050;2023-11-19T08:34:46;13.02;;;3.03;;
35257;SDS011;21385;50.878;8.050;2023-11-19T08:37:11;5.82;;;1.38;;
35257;SDS011;21385;50.878;8.050;2023-11-19T08:39:38;5.50;;;1.85;;
35257;SDS011;21385;50.878;8.050;2023-11-19T08:42:03;10.40;;;2.47;;
35257;SDS011;21385;50.878;8.050;2023-11-19T08:44:29;15.35;;;3.47;;
35257;SDS011;21385;50.878;8.050;2023-11-19T08:46:55;5.68;;;3.10;;
35257;SDS011;21385;50.878;8.050;2023-11-19T08:49:20;5.05;;;2.15;;
35257;SDS011;21385;50.878;8.050;2023-11-19T08:51:46;7.57;;;2.83;;
35257;SDS011;21385;50.878;8.050;2023-11-19T08:54:11;13.93;;;2.42;;
35257;SDS011;21385;50.878;8.050;2023-11-19T08:56:38;8.45;;;2.40;;
35257;SDS011;21385;50.878;8.050;2023-11-19T08:59:04;14.27;;;2.42;;
35257;SDS011;21385;50.878;8.050;2023-11-19T09:01:30;16.77;;;2.83;;
35257;SDS011;21385;50.878;8.050;2023-11-19T09:03:56;8.90;;;2.88;;
35257;SDS011;21385;50.878;8.050;2023-11-19T09:06:22;11.68;;;2.38;;
35257;SDS011;21385;50.878;8.050;2023-11-19T09:08:48;7.53;;;2.92;;
35257;SDS011;21385;50.878;8.050;2023-11-19T09:11:13;4.50;;;2.33;;
35257;SDS011;21385;50.878;8.050;2023-11-19T09:13:39;4.40;;;2.10;;
35257;SDS011;21385;50.878;8.050;2023-11-19T09:16:04;5.05;;;2.05;;
35257;SDS011;21385;50.878;8.050;2023-11-19T09:18:30;10.02;;;2.92;;
35257;SDS011;21385;50.878;8.050;2023-11-19T09:20:57;5.53;;;1.45;;
35257;SDS011;21385;50.878;8.050;2023-11-19T09:23:23;4.75;;;2.20;;
35257;SDS011;21385;50.878;8.050;2023-11-19T09:25:54;9.35;;;3.33;;
35257;SDS011;21385;50.878;8.050;2023-11-19T09:28:19;6.10;;;2.88;;
35257;SDS011;21385;50.878;8.050;2023-11-19T09:30:45;5.43;;;2.55;;
35257;SDS011;21385;50.878;8.050;2023-11-19T09:33:10;3.83;;;2.00;;
35257;SDS011;21385;50.878;8.050;2023-11-19T09:35:36;6.10;;;2.63;;
35257;SDS011;21385;50.878;8.050;2023-11-19T09:38:02;4.97;;;3.10;;
35257;SDS011;21385;50.878;8.050;2023-11-19T09:40:27;17.48;;;2.85;;
35257;SDS011;21385;50.878;8.050;2023-11-19T09:42:53;6.60;;;2.00;;
35257;SDS011;21385;50.878;8.050;2023-11-19T09:45:20;8.50;;;3.22;;
35257;SDS011;21385;50.878;8.050;2023-11-19T09:47:46;17.65;;;2.35;;
35257;SDS011;21385;50.878;8.050;2023-11-19T09:50:16;16.05;;;3.13;;
35257;SDS011;21385;50.878;8.050;2023-11-19T09:52:48;6.43;;;2.45;;
35257;SDS011;21385;50.878;8.050;2023-11-19T09:55:14;7.22;;;2.20;;
35257;SDS011;21385;50.878;8.050;2023-11-19T09:57:40;9.45;;;2.47;;
35257;SDS011;21385;50.878;8.050;2023-11-19T10:00:07;10.50;;;2.30;;
35257;SDS011;21385;50.878;8.050;2023-11-19T10:02:35;4.90;;;2.38;;
35257;SDS011;21385;50.878;8.050;2023-11-19T10:05:03;12.10;;;2.03;;
35257;SDS011;21385;50.878;8.050;2023-11-19T10:07:31;6.95;;;3.38;;
35257;SDS011;21385;50.878;8.050;2023-11-19T10:09:59;10.73;;;3.28;;
35257;SDS011;21385;50.878;8.050;2023-11-19T10:12:26;6.47;;;2.45;;
35257;SDS011;21385;50.878;8.050;2023-11-19T10:14:52;10.15;;;2.65;;
35257;SDS011;21385;50.878;8.050;2023-11-19T10:17:21;6.70;;;3.13;;
35257;SDS011;21385;50.878;8.050;2023-11-19T10:19:46;13.48;;;3.35;;
35257;SDS011;21385;50.878;8.050;2023-11-19T10:22:12;5.18;;;2.65;;
35257;SDS011;21385;50.878;8.050;2023-11-19T10:24:41;7.85;;;2.33;;
35257;SDS011;21385;50.878;8.050;2023-11-19T10:27:07;12.98;;;3.60;;
35257;SDS011;21385;50.878;8.050;2023-11-19T10:29:35;9.23;;;2.80;;
35257;SDS011;21385;50.878;8.050;2023-11-19T10:32:02;26.77;;;3.55;;
35257;SDS011;21385;50.878;8.050;2023-11-19T10:34:29;9.98;;;2.22;;
35257;SDS011;21385;50.878;8.050;2023-11-19T10:36:55;7.00;;;1.70;;
35257;SDS011;21385;50.878;8.050;2023-11-19T10:39:20;13.25;;;2.72;;
35257;SDS011;21385;50.878;8.050;2023-11-19T10:41:48;13.65;;;2.40;;
35257;SDS011;21385;50.878;8.050;2023-11-19T10:44:28;10.77;;;3.72;;
35257;SDS011;21385;50.878;8.050;2023-11-19T10:47:01;9.80;;;2.33;;
35257;SDS011;21385;50.878;8.050;2023-11-19T10:49:26;11.75;;;2.75;;
35257;SDS011;21385;50.878;8.050;2023-11-19T10:51:52;14.27;;;3.35;;
35257;SDS011;21385;50.878;8.050;2023-11-19T10:54:21;12.55;;;3.88;;
35257;SDS011;21385;50.878;8.050;2023-11-19T10:56:49;6.80;;;2.97;;
35257;SDS011;21385;50.878;8.050;2023-11-19T10:59:20;8.30;;;2.45;;
35257;SDS011;21385;50.878;8.050;2023-11-19T11:01:47;6.35;;;3.63;;
35257;SDS011;21385;50.878;8.050;2023-11-19T11:04:17;3.20;;;1.98;;
35257;SDS011;21385;50.878;8.050;2023-11-19T11:06:47;13.57;;;4.43;;
35257;SDS011;21385;50.878;8.050;2023-11-19T11:09:13;11.95;;;2.13;;
35257;SDS011;21385;50.878;8.050;2023-11-19T11:11:40;4.55;;;2.60;;
35257;SDS011;21385;50.878;8.050;2023-11-19T11:14:08;18.83;;;4.13;;
35257;SDS011;21385;50.878;8.050;2023-11-19T11:16:37;8.50;;;3.33;;
35257;SDS011;21385;50.878;8.050;2023-11-19T11:19:04;8.90;;;2.67;;
35257;SDS011;21385;50.878;8.050;2023-11-19T11:21:30;5.43;;;2.17;;
35257;SDS011;21385;50.878;8.050;2023-11-19T11:24:10;12.05;;;3.72;;
35257;SDS011;21385;50.878;8.050;2023-11-19T11:27:02;16.23;;;3.95;;
35257;SDS011;21385;50.878;8.050;2023-11-19T11:29:41;14.20;;;4.15;;
35257;SDS011;21385;50.878;8.050;2023-11-19T11:32:28;8.95;;;2.67;;
35257;SDS011;21385;50.878;8.050;2023-11-19T11:37:44;8.27;;;2.88;;
35257;SDS011;21385;50.878;8.050;2023-11-19T11:40:16;12.90;;;2.50;;
35257;SDS011;21385;50.878;8.050;2023-11-19T11:42:43;5.05;;;1.88;;
35257;SDS011;21385;50.878;8.050;2023-11-19T11:45:12;17.70;;;2.78;;
35257;SDS011;21385;50.878;8.050;2023-11-19T11:50:17;13.43;;;4.30;;
35257;SDS011;21385;50.878;8.050;2023-11-19T11:58:13;27.00;;;3.17;;
35257;SDS011;21385;50.878;8.050;2023-11-19T12:00:42;6.45;;;2.65;;
35257;SDS011;21385;50.878;8.050;2023-11-19T12:03:08;5.68;;;2.03;;
35257;SDS011;21385;50.878;8.050;2023-11-19T12:05:46;7.82;;;2.78;;
35257;SDS011;21385;50.878;8.050;2023-11-19T12:08:13;8.23;;;2.78;;
35257;SDS011;21385;50.878;8.050;2023-11-19T12:13:13;10.13;;;4.40;;
35257;SDS011;21385;50.878;8.050;2023-11-19T12:18:21;14.87;;;4.90;;
35257;SDS011;21385;50.878;8.050;2023-11-19T12:20:48;15.65;;;4.53;;
35257;SDS011;21385;50.878;8.050;2023-11-19T12:23:14;7.30;;;2.50;;
35257;SDS011;21385;50.878;8.050;2023-11-19T12:25:40;16.05;;;3.58;;
35257;SDS011;21385;50.878;8.050;2023-11-19T12:28:11;9.00;;;2.63;;
35257;SDS011;21385;50.878;8.050;2023-11-19T12:30:38;15.18;;;4.38;;
35257;SDS011;21385;50.878;8.050;2023-11-19T12:33:10;19.67;;;3.80;;
35257;SDS011;21385;50.878;8.050;2023-11-19T12:35:40;9.52;;;2.78;;
35257;SDS011;21385;50.878;8.050;2023-11-19T12:38:06;10.40;;;2.63;;
35257;SDS011;21385;50.878;8.050;2023-11-19T12:40:32;18.27;;;2.85;;
35257;SDS011;21385;50.878;8.050;2023-11-19T12:42:57;3.88;;;1.77;;
35257;SDS011;21385;50.878;8.050;2023-11-19T12:45:24;5.45;;;2.47;;
35257;SDS011;21385;50.878;8.050;2023-11-19T12:47:50;7.00;;;1.85;;
35257;SDS011;21385;50.878;8.050;2023-11-19T12:50:30;6.57;;;2.05;;
35257;SDS011;21385;50.878;8.050;2023-11-19T12:53:22;3.47;;;2.60;;
35257;SDS011;21385;50.878;8.050;2023-11-19T12:55:49;8.13;;;2.08;;
35257;SDS011;21385;50.878;8.050;2023-11-19T13:01:19;5.45;;;2.53;;
35257;SDS011;21385;50.878;8.050;2023-11-19T13:03:46;6.75;;;2.38;;
35257;SDS011;21385;50.878;8.050;2023-11-19T13:06:13;9.88;;;2.20;;
35257;SDS011;21385;50.878;8.050;2023-11-19T13:08:50;8.77;;;2.60;;
35257;SDS011;21385;50.878;8.050;2023-11-19T13:11:31;7.78;;;2.97;;
35257;SDS011;21385;50.878;8.050;2023-11-19T13:14:02;6.45;;;2.38;;
35257;SDS011;21385;50.878;8.050;2023-11-19T13:16:38;12.27;;;2.10;;
35257;SDS011;21385;50.878;8.050;2023-11-19T13:19:03;18.90;;;3.42;;
35257;SDS011;21385;50.878;8.050;2023-11-19T13:21:30;7.32;;;2.65;;
35257;SDS011;21385;50.878;8.050;2023-11-19T13:23:56;3.75;;;2.03;;
35257;SDS011;21385;50.878;8.050;2023-11-19T13:26:21;5.07;;;2.35;;
35257;SDS011;21385;50.878;8.050;2023-11-19T13:28:47;4.85;;;3.13;;
35257;SDS011;21385;50.878;8.050;2023-11-19T13:31:12;4.95;;;2.25;;
35257;SDS011;21385;50.878;8.050;2023-11-19T13:33:39;10.18;;;2.22;;
35257;SDS011;21385;50.878;8.050;2023-11-19T13:36:04;10.38;;;2.92;;
35257;SDS011;21385;50.878;8.050;2023-11-19T13:38:32;11.05;;;2.65;;
35257;SDS011;21385;50.878;8.050;2023-11-19T13:41:02;3.42;;;2.08;;
35257;SDS011;21385;50.878;8.050;2023-11-19T13:43:29;14.23;;;2.67;;
35257;SDS011;21385;50.878;8.050;2023-11-19T13:45:55;1.42;;;1.00;;
35257;SDS011;21385;50.878;8.050;2023-11-19T13:48:21;2.83;;;1.73;;
35257;SDS011;21385;50.878;8.050;2023-11-19T13:50:47;10.57;;;2.30;;
35257;SDS011;21385;50.878;8.050;2023-11-19T13:53:13;5.38;;;2.67;;
35257;SDS011;21385;50.878;8.050;2023-11-19T13:55:38;8.52;;;1.45;;
35257;SDS011;21385;50.878;8.050;2023-11-19T13:58:04;9.50;;;2.63;;
35257;SDS011;21385;50.878;8.050;2023-11-19T14:00:30;3.50;;;1.75;;
35257;SDS011;21385;50.878;8.050;2023-11-19T14:02:55;10.43;;;2.58;;
35257;SDS011;21385;50.878;8.050;2023-11-19T14:05:21;7.72;;;1.77;;
35257;SDS011;21385;50.878;8.050;2023-11-19T14:07:48;6.38;;;2.03;;
35257;SDS011;21385;50.878;8.050;2023-11-19T14:10:14;1.75;;;1.20;;
35257;SDS011;21385;50.878;8.050;2023-11-19T14:12:40;7.57;;;1.75;;
35257;SDS011;21385;50.878;8.050;2023-11-19T14:15:07;7.13;;;1.63;;
35257;SDS011;21385;50.878;8.050;2023-11-19T14:17:42;14.75;;;2.60;;
35257;SDS011;21385;50.878;8.050;2023-11-19T14:20:07;5.75;;;2.67;;
35257;SDS011;21385;50.878;8.050;2023-11-19T14:22:38;6.00;;;2.10;;
35257;SDS011;21385;50.878;8.050;2023-11-19T14:25:07;6.43;;;2.00;;
35257;SDS011;21385;50.878;8.050;2023-11-19T14:27:39;7.03;;;2.42;;
35257;SDS011;21385;50.878;8.050;2023-11-19T14:30:06;4.53;;;2.17;;
35257;SDS011;21385;50.878;8.050;2023-11-19T14:32:33;13.35;;;2.67;;
35257;SDS011;21385;50.878;8.050;2023-11-19T14:35:00;8.82;;;2.60;;
35257;SDS011;21385;50.878;8.050;2023-11-19T14:37:26;8.57;;;2.83;;
35257;SDS011;21385;50.878;8.050;2023-11-19T14:39:51;5.47;;;2.55;;
35257;SDS011;21385;50.878;8.050;2023-11-19T14:42:17;2.67;;;1.77;;
35257;SDS011;21385;50.878;8.050;2023-11-19T14:44:43;10.10;;;1.83;;
35257;SDS011;21385;50.878;8.050;2023-11-19T14:47:08;11.85;;;1.95;;
35257;SDS011;21385;50.878;8.050;2023-11-19T14:49:35;5.30;;;2.50;;
35257;SDS011;21385;50.878;8.050;2023-11-19T14:52:02;4.82;;;1.27;;
35257;SDS011;21385;50.878;8.050;2023-11-19T14:54:28;4.55;;;2.72;;
35257;SDS011;21385;50.878;8.050;2023-11-19T14:56:54;17.42;;;2.03;;
35257;SDS011;21385;50.878;8.050;2023-11-19T14:59:19;13.20;;;2.58;;
35257;SDS011;21385;50.878;8.050;2023-11-19T15:01:45;3.55;;;2.03;;
35257;SDS011;21385;50.878;8.050;2023-11-19T15:04:11;7.97;;;1.85;;
35257;SDS011;21385;50.878;8.050;2023-11-19T15:06:37;5.07;;;2.75;;
35257;SDS011;21385;50.878;8.050;2023-11-19T15:09:03;8.20;;;1.88;;